Time;durP1;ratioP1;P1;durP2;ratioP2;P2;SDS_P1;SDS_P2;PMS_P1;PMS_P2;Temp;Humidity;BMP_temperature;BMP_pressure;BME280_temperature;BME280_humidity;BME280_pressure;Samples;Min_cycle;Max_cycle;Signal;HPM_P1;HPM_P2
2023/12/11 00:00:47;;;;;;;11.27;5.43;;;6.10;99.90;;;;;;5016602;28;20040;-83
2023/12/11 00:03:12;;;;;;;22.95;7.25;;;6.10;99.90;;;;;;5016292;28;20412;-83
2023/12/11 00:05:39;;;;;;;20.42;6.82;;;6.10;99.90;;;;;;5016224;28;20041;-83
2023/12/11 00:08:06;;;;;;;16.65;6.30;;;6.20;99.90;;;;;;5016235;28;20071;-83
2023/12/11 00:10:31;;;;;;;22.67;9.32;;;6.20;99.90;;;;;;5016097;28;20032;-83
2023/12/11 00:12:57;;;;;;;14.05;8.15;;;6.20;99.90;;;;;;5016170;28;20416;-83
2023/12/11 00:15:23;;;;;;;17.23;8.57;;;6.20;99.90;;;;;;5032282;28;20037;-83
2023/12/11 00:17:48;;;;;;;20.90;8.02;;;6.30;99.90;;;;;;5015670;28;20030;-83
2023/12/11 00:20:14;;;;;;;15.48;8.57;;;6.30;99.90;;;;;;5031879;28;20448;-83
2023/12/11 00:22:40;;;;;;;17.65;8.38;;;6.30;99.90;;;;;;5032251;28;20115;-83
2023/12/11 00:25:06;;;;;;;23.30;9.13;;;6.40;99.90;;;;;;5015950;28;20029;-84
2023/12/11 00:27:32;;;;;;;20.67;8.57;;;6.30;99.90;;;;;;5014720;28;20610;-83
2023/12/11 00:29:59;;;;;;;17.75;8.98;;;6.40;99.90;;;;;;5015473;28;20135;-83
2023/12/11 00:32:24;;;;;;;19.95;8.57;;;6.40;99.90;;;;;;5015169;28;20045;-83
2023/12/11 00:34:50;;;;;;;16.65;9.40;;;6.40;99.90;;;;;;5015265;28;20038;-83
2023/12/11 00:37:17;;;;;;;18.00;10.23;;;6.40;99.90;;;;;;5033179;28;20792;-83
2023/12/11 00:39:43;;;;;;;18.08;9.95;;;6.40;99.90;;;;;;5011610;28;20037;-83
2023/12/11 00:42:09;;;;;;;16.08;10.13;;;6.40;99.90;;;;;;5032724;28;20032;-83
2023/12/11 00:44:37;;;;;;;21.38;11.30;;;6.40;99.90;;;;;;5014794;28;20087;-83
2023/12/11 00:47:04;;;;;;;24.75;12.70;;;6.50;99.90;;;;;;5014878;28;20270;-83
2023/12/11 00:49:30;;;;;;;22.27;11.43;;;6.50;99.90;;;;;;5014757;28;20045;-83
2023/12/11 00:51:56;;;;;;;24.00;11.65;;;6.50;99.90;;;;;;5031484;28;20037;-83
2023/12/11 00:54:22;;;;;;;19.38;10.23;;;6.50;99.90;;;;;;5033337;28;20376;-83
2023/12/11 00:56:48;;;;;;;18.60;10.48;;;6.60;99.90;;;;;;5032067;28;20037;-83
2023/12/11 00:59:14;;;;;;;17.65;9.13;;;6.60;99.90;;;;;;5031711;28;20103;-83
2023/12/11 01:01:39;;;;;;;17.10;9.73;;;6.60;99.90;;;;;;5014773;28;20124;-83
2023/12/11 01:04:06;;;;;;;20.10;10.77;;;6.60;99.90;;;;;;5031828;28;20075;-83
2023/12/11 01:06:31;;;;;;;21.67;11.75;;;6.60;99.90;;;;;;5014708;28;20033;-83
2023/12/11 01:08:57;;;;;;;22.08;11.32;;;6.60;99.90;;;;;;5031933;28;20167;-83
2023/12/11 01:11:23;;;;;;;27.00;11.95;;;6.60;99.90;;;;;;5014837;28;20037;-83
2023/12/11 01:13:48;;;;;;;18.35;10.88;;;6.60;99.90;;;;;;5015237;28;20033;-82
2023/12/11 01:16:14;;;;;;;21.77;11.13;;;6.60;99.90;;;;;;5032680;28;20143;-83
2023/12/11 01:18:40;;;;;;;21.45;11.02;;;6.60;99.90;;;;;;5015461;28;20671;-83
2023/12/11 01:21:06;;;;;;;16.02;10.70;;;6.60;99.90;;;;;;5015316;28;20729;-83
2023/12/11 01:23:31;;;;;;;18.98;12.85;;;6.60;99.90;;;;;;5048169;28;20397;-83
2023/12/11 01:25:57;;;;;;;23.42;12.35;;;6.60;99.90;;;;;;5031338;28;20037;-83
2023/12/11 01:28:23;;;;;;;26.40;11.65;;;6.60;99.90;;;;;;5014970;28;20033;-83
2023/12/11 01:30:48;;;;;;;30.70;11.93;;;6.60;99.90;;;;;;5015123;28;20033;-82
2023/12/11 01:33:14;;;;;;;26.38;12.52;;;6.50;99.90;;;;;;5014931;28;20585;-83
2023/12/11 01:35:40;;;;;;;22.98;14.25;;;6.60;99.90;;;;;;5014423;28;20042;-83
2023/12/11 01:38:06;;;;;;;26.95;14.05;;;6.60;99.90;;;;;;5031374;28;20029;-83
2023/12/11 01:40:31;;;;;;;24.35;14.07;;;6.60;99.90;;;;;;5014392;28;20022;-83
2023/12/11 01:43:18;;;;;;;27.60;13.52;;;6.60;99.90;;;;;;5027158;28;20401;-83
2023/12/11 01:45:45;;;;;;;23.80;12.90;;;6.70;99.90;;;;;;5014209;28;20455;-83
2023/12/11 01:48:12;;;;;;;21.20;13.48;;;6.70;99.90;;;;;;5014259;28;20037;-83
2023/12/11 01:50:40;;;;;;;24.95;12.55;;;6.80;99.90;;;;;;5032225;28;20061;-82
2023/12/11 01:53:07;;;;;;;22.13;12.23;;;6.80;99.90;;;;;;5030880;28;20417;-83
2023/12/11 01:55:35;;;;;;;20.50;11.35;;;6.80;99.90;;;;;;5015056;28;20124;-83
2023/12/11 01:58:02;;;;;;;16.35;10.50;;;6.80;99.90;;;;;;5031216;28;20033;-83
2023/12/11 02:00:28;;;;;;;20.38;10.23;;;6.80;99.90;;;;;;5016089;28;20120;-89
2023/12/11 02:02:54;;;;;;;16.55;9.57;;;6.90;99.90;;;;;;5016839;28;20033;-89
2023/12/11 02:05:20;;;;;;;19.92;11.77;;;6.90;99.90;;;;;;5016571;28;20040;-89
2023/12/11 02:07:45;;;;;;;17.77;9.80;;;6.90;99.90;;;;;;5033318;28;20030;-89
2023/12/11 02:10:11;;;;;;;23.92;10.63;;;6.90;99.90;;;;;;5016951;28;20034;-89
2023/12/11 02:12:39;;;;;;;22.50;10.73;;;6.90;99.90;;;;;;5016586;28;20033;-88
2023/12/11 02:15:05;;;;;;;19.13;10.70;;;6.90;99.90;;;;;;5033125;28;20025;-89
2023/12/11 02:17:30;;;;;;;23.35;11.65;;;6.90;99.90;;;;;;5016690;28;20060;-88
2023/12/11 02:19:56;;;;;;;18.38;10.70;;;6.90;99.90;;;;;;5016925;28;20462;-89
2023/12/11 02:22:22;;;;;;;21.10;11.98;;;6.90;99.90;;;;;;5016451;28;20120;-88
2023/12/11 02:24:53;;;;;;;23.60;13.10;;;6.90;99.90;;;;;;5016799;28;20036;-89
2023/12/11 02:27:19;;;;;;;;;;;6.90;99.90;;;;;;5033220;28;20389;-89
2023/12/11 02:29:45;;;;;;;23.08;12.52;;;7.00;99.90;;;;;;5032814;28;19916;-89
2023/12/11 02:32:10;;;;;;;23.98;11.75;;;6.90;99.90;;;;;;5033264;28;20033;-89
2023/12/11 02:34:36;;;;;;;21.88;11.80;;;6.90;99.90;;;;;;5033101;28;20056;-89
2023/12/11 02:37:02;;;;;;;28.80;10.80;;;6.90;99.90;;;;;;5033984;28;20053;-89
2023/12/11 02:39:27;;;;;;;18.27;10.75;;;7.00;99.90;;;;;;5016193;28;20021;-89
2023/12/11 02:41:53;;;;;;;22.58;11.55;;;7.00;99.90;;;;;;5032315;28;20044;-88
2023/12/11 02:44:19;;;;;;;20.40;10.02;;;7.00;99.90;;;;;;5015768;28;20034;-88
2023/12/11 02:46:44;;;;;;;17.52;10.90;;;7.00;99.90;;;;;;5015101;28;20036;-89
2023/12/11 02:49:10;;;;;;;22.75;11.43;;;7.00;99.90;;;;;;5032792;28;20380;-89
2023/12/11 02:51:36;;;;;;;22.95;12.50;;;7.00;99.90;;;;;;5016290;28;20038;-89
2023/12/11 02:54:02;;;;;;;27.73;11.65;;;7.00;99.90;;;;;;5049900;28;20032;-89
2023/12/11 02:56:27;;;;;;;27.65;13.32;;;6.90;99.90;;;;;;5016488;28;20032;-89
2023/12/11 02:58:53;;;;;;;23.60;11.02;;;6.70;99.90;;;;;;5016277;28;20037;-89
2023/12/11 03:01:19;;;;;;;21.65;10.20;;;6.70;99.90;;;;;;5032893;28;20029;-89
2023/12/11 03:03:45;;;;;;;16.88;10.63;;;6.70;99.90;;;;;;5016087;28;20029;-88
2023/12/11 03:06:19;;;;;;;27.10;12.30;;;6.70;99.90;;;;;;5016255;28;20047;-89
2023/12/11 03:08:45;;;;;;;25.13;12.93;;;6.70;99.90;;;;;;5016209;28;20473;-89
2023/12/11 03:11:10;;;;;;;22.30;12.15;;;6.70;99.90;;;;;;5016380;28;20044;-88
2023/12/11 03:13:36;;;;;;;27.98;14.10;;;6.80;99.90;;;;;;5035739;28;20025;-89
2023/12/11 03:16:02;;;;;;;25.77;13.88;;;6.80;99.90;;;;;;5020202;28;20029;-89
2023/12/11 03:18:27;;;;;;;16.65;11.57;;;6.80;99.90;;;;;;5036256;28;20078;-89
2023/12/11 03:20:53;;;;;;;28.77;15.40;;;6.90;99.90;;;;;;5035594;28;20087;-89
2023/12/11 03:23:19;;;;;;;27.50;13.23;;;6.90;99.90;;;;;;5019737;28;20380;-89
2023/12/11 03:25:45;;;;;;;24.33;14.43;;;6.90;99.90;;;;;;5035980;28;20037;-89
2023/12/11 03:28:10;;;;;;;31.42;15.05;;;7.00;99.90;;;;;;5019656;28;20043;-89
2023/12/11 03:30:36;;;;;;;33.20;15.15;;;7.00;99.90;;;;;;5019843;28;20128;-89
2023/12/11 03:33:02;;;;;;;31.45;15.57;;;7.00;99.90;;;;;;5019944;28;20033;-89
2023/12/11 03:35:28;;;;;;;27.98;14.20;;;7.00;99.90;;;;;;5052453;28;20032;-89
2023/12/11 03:37:53;;;;;;;29.77;14.77;;;7.00;99.90;;;;;;5019753;28;20072;-88
2023/12/11 03:40:19;;;;;;;24.42;15.48;;;7.00;99.90;;;;;;5019432;28;20421;-89
2023/12/11 03:42:45;;;;;;;29.83;15.50;;;7.00;99.90;;;;;;5019820;28;20068;-89
2023/12/11 03:45:10;;;;;;;39.17;15.93;;;7.00;99.90;;;;;;5053352;28;20129;-89
2023/12/11 03:47:36;;;;;;;36.22;16.10;;;7.00;99.90;;;;;;5036121;28;20029;-88
2023/12/11 03:50:02;;;;;;;22.48;14.02;;;7.00;99.90;;;;;;5019104;28;20032;-89
2023/12/11 03:52:28;;;;;;;27.05;13.32;;;7.00;99.90;;;;;;5052670;28;20021;-89
2023/12/11 03:54:53;;;;;;;22.08;12.68;;;7.00;99.90;;;;;;5052236;28;20040;-88
2023/12/11 03:57:19;;;;;;;29.23;13.88;;;7.00;99.90;;;;;;5018654;28;20021;-88
2023/12/11 03:59:45;;;;;;;28.70;14.15;;;7.00;99.90;;;;;;5018773;28;20022;-90
2023/12/11 04:02:11;;;;;;;20.83;10.25;;;7.10;99.90;;;;;;5018218;28;20026;-88
2023/12/11 04:04:36;;;;;;;28.35;11.90;;;7.10;99.90;;;;;;5018463;28;20033;-88
2023/12/11 04:07:03;;;;;;;29.30;11.77;;;7.00;99.90;;;;;;5037100;28;20037;-89
2023/12/11 04:09:28;;;;;;;23.90;10.88;;;7.00;99.90;;;;;;5019013;28;20084;-89
2023/12/11 04:11:54;;;;;;;24.98;10.40;;;7.00;99.90;;;;;;5035338;28;20033;-90
2023/12/11 04:14:20;;;;;;;24.58;10.52;;;7.00;99.90;;;;;;5019206;28;20420;-90
2023/12/11 04:16:46;;;;;;;32.20;11.77;;;7.00;99.90;;;;;;5035523;28;20076;-89
2023/12/11 04:19:11;;;;;;;25.33;11.60;;;7.10;99.90;;;;;;5035517;28;20030;-89
2023/12/11 04:21:38;;;;;;;26.60;11.45;;;7.10;99.90;;;;;;5018858;28;20167;-90
2023/12/11 04:24:04;;;;;;;30.60;12.75;;;7.10;99.90;;;;;;5034241;28;20075;-89
2023/12/11 04:26:30;;;;;;;26.77;12.88;;;7.10;99.90;;;;;;5018629;28;20452;-89
2023/12/11 04:28:55;;;;;;;23.23;12.98;;;7.10;99.90;;;;;;5035248;28;20056;-89
2023/12/11 04:31:23;;;;;;;26.73;13.23;;;7.10;99.90;;;;;;5018494;28;20029;-89
2023/12/11 04:33:50;;;;;;;24.40;13.70;;;7.10;99.90;;;;;;5035630;28;20496;-89
2023/12/11 04:36:15;;;;;;;29.90;12.70;;;7.10;99.90;;;;;;5035400;28;20650;-89
2023/12/11 04:38:41;;;;;;;20.80;12.13;;;7.20;99.90;;;;;;5034833;28;20150;-89
2023/12/11 04:41:07;;;;;;;27.55;13.68;;;7.20;99.90;;;;;;5018565;28;20392;-89
2023/12/11 04:43:36;;;;;;;25.00;14.30;;;7.20;99.90;;;;;;5018338;28;20037;-89
2023/12/11 04:46:01;;;;;;;31.80;14.93;;;7.20;99.90;;;;;;5034846;28;20037;-89
2023/12/11 04:48:27;;;;;;;33.05;16.33;;;7.20;99.90;;;;;;5017304;28;20477;-89
2023/12/11 04:50:53;;;;;;;32.45;15.25;;;7.20;99.90;;;;;;5034673;28;20033;-90
2023/12/11 04:53:19;;;;;;;33.10;15.65;;;7.20;99.90;;;;;;5018175;28;20027;-89
2023/12/11 04:55:45;;;;;;;28.35;15.70;;;7.30;99.90;;;;;;5017896;28;20038;-89
2023/12/11 04:58:11;;;;;;;31.88;15.48;;;7.20;99.90;;;;;;5051114;28;20033;-89
2023/12/11 05:00:37;;;;;;;25.17;14.40;;;7.30;99.90;;;;;;5034617;28;20492;-89
2023/12/11 05:03:03;;;;;;;29.02;13.23;;;7.30;99.90;;;;;;5018483;28;20060;-89
2023/12/11 05:05:29;;;;;;;24.10;13.40;;;7.30;99.90;;;;;;5034425;28;20033;-89
2023/12/11 05:07:54;;;;;;;24.95;13.40;;;7.30;99.90;;;;;;5017632;28;20033;-89
2023/12/11 05:10:20;;;;;;;23.15;14.85;;;7.30;99.90;;;;;;5017574;28;20057;-89
2023/12/11 05:12:46;;;;;;;32.20;15.07;;;7.40;99.90;;;;;;5018216;28;20032;-89
2023/12/11 05:15:11;;;;;;;22.52;12.88;;;7.40;99.90;;;;;;5018005;28;20029;-89
2023/12/11 05:17:37;;;;;;;24.40;12.73;;;7.40;99.90;;;;;;5033955;28;20029;-89
2023/12/11 05:20:03;;;;;;;24.90;14.48;;;7.40;99.90;;;;;;5017669;28;20039;-89
2023/12/11 05:22:29;;;;;;;28.55;17.58;;;7.50;99.90;;;;;;5033705;28;20056;-89
2023/12/11 05:24:55;;;;;;;28.73;17.05;;;7.50;99.90;;;;;;5034398;28;20477;-88
2023/12/11 05:27:20;;;;;;;31.65;19.70;;;7.50;99.90;;;;;;5033899;28;20080;-89
2023/12/11 05:29:46;;;;;;;28.80;18.83;;;7.50;99.90;;;;;;5017347;28;20130;-90
2023/12/11 05:32:13;;;;;;;28.48;18.67;;;7.50;99.90;;;;;;5017501;28;20473;-89
2023/12/11 05:34:39;;;;;;;24.67;17.05;;;7.50;99.90;;;;;;5017070;28;20025;-89
2023/12/11 05:37:04;;;;;;;27.02;16.55;;;7.50;99.90;;;;;;5034979;28;20030;-88
2023/12/11 05:39:30;;;;;;;23.77;16.52;;;7.60;99.90;;;;;;5017466;28;20032;-89
2023/12/11 05:41:56;;;;;;;22.20;16.00;;;7.60;99.90;;;;;;5017263;28;20034;-89
2023/12/11 05:44:22;;;;;;;28.55;16.33;;;7.60;99.90;;;;;;5016985;28;20093;-89
2023/12/11 05:46:48;;;;;;;25.23;15.75;;;7.60;99.90;;;;;;5017163;28;20029;-89
2023/12/11 05:49:13;;;;;;;25.40;15.50;;;7.60;99.90;;;;;;5032610;28;20078;-89
2023/12/11 05:51:39;;;;;;;23.35;14.10;;;7.70;99.90;;;;;;5034937;28;20492;-88
2023/12/11 05:54:05;;;;;;;23.85;15.55;;;7.60;99.90;;;;;;5016742;28;20031;-90
2023/12/11 05:56:30;;;;;;;25.33;14.95;;;7.60;99.90;;;;;;5017438;28;20392;-89
2023/12/11 05:58:56;;;;;;;24.75;15.07;;;7.60;99.90;;;;;;5017065;28;20040;-89
2023/12/11 06:01:22;;;;;;;23.50;14.20;;;7.70;99.90;;;;;;5017210;28;20025;-89
2023/12/11 06:03:48;;;;;;;22.85;15.70;;;7.70;99.90;;;;;;5017654;28;20120;-88
2023/12/11 06:06:15;;;;;;;28.08;13.93;;;7.70;99.90;;;;;;5033315;28;20037;-89
2023/12/11 06:08:41;;;;;;;25.63;12.65;;;7.60;99.90;;;;;;5017163;28;20496;-89
2023/12/11 06:11:07;;;;;;;26.55;12.80;;;7.70;99.90;;;;;;5017444;28;20476;-89
2023/12/11 06:13:32;;;;;;;23.10;12.25;;;7.70;99.90;;;;;;5033147;28;20029;-89
2023/12/11 06:15:58;;;;;;;18.58;10.25;;;7.70;99.90;;;;;;5033175;28;20065;-89
2023/12/11 06:18:24;;;;;;;20.73;11.38;;;7.60;99.90;;;;;;5033927;28;20439;-90
2023/12/11 06:20:50;;;;;;;27.48;13.15;;;7.60;99.90;;;;;;5017108;28;20112;-90
2023/12/11 06:23:16;;;;;;;16.25;9.32;;;7.60;99.90;;;;;;5034069;28;20057;-90
2023/12/11 06:25:41;;;;;;;17.20;10.18;;;7.60;99.90;;;;;;5016664;28;20034;-89
2023/12/11 06:28:07;;;;;;;19.20;9.98;;;7.60;99.90;;;;;;5033469;28;20044;-89
2023/12/11 06:30:33;;;;;;;35.55;12.80;;;7.60;99.90;;;;;;5033332;28;20041;-89
2023/12/11 06:32:58;;;;;;;16.98;9.52;;;7.60;99.90;;;;;;5016667;28;20053;-89
2023/12/11 06:35:24;;;;;;;21.17;9.40;;;7.60;99.90;;;;;;5016649;28;20538;-89
2023/12/11 06:37:50;;;;;;;25.67;10.98;;;7.60;99.90;;;;;;5016229;28;20496;-89
2023/12/11 06:40:17;;;;;;;23.63;11.38;;;7.60;99.90;;;;;;5017149;28;20040;-89
2023/12/11 06:42:43;;;;;;;25.67;10.57;;;7.60;99.90;;;;;;5017805;28;20029;-90
2023/12/11 06:45:10;;;;;;;18.63;10.27;;;7.60;99.90;;;;;;5017637;28;20128;-89
2023/12/11 06:47:36;;;;;;;19.30;8.55;;;7.60;99.90;;;;;;5035918;28;20124;-89
2023/12/11 06:50:03;;;;;;;16.85;8.23;;;7.60;99.90;;;;;;5021100;28;20030;-89
2023/12/11 06:52:29;;;;;;;23.83;8.45;;;7.60;99.90;;;;;;5020772;28;20448;-88
2023/12/11 06:54:55;;;;;;;18.05;8.32;;;7.50;99.90;;;;;;5020648;28;20021;-89
2023/12/11 06:57:21;;;;;;;13.80;7.70;;;7.60;99.90;;;;;;5037468;28;20481;-90
2023/12/11 06:59:47;;;;;;;18.60;7.80;;;7.60;99.90;;;;;;5020574;28;20025;-90
2023/12/11 07:02:13;;;;;;;12.52;7.25;;;7.60;99.90;;;;;;5037615;28;20140;-89
2023/12/11 07:04:42;;;;;;;17.23;8.10;;;7.60;99.90;;;;;;5020232;28;20080;-89
2023/12/11 07:07:09;;;;;;;15.10;8.82;;;7.70;99.90;;;;;;5037804;28;20369;-89
2023/12/11 07:09:35;;;;;;;18.27;8.05;;;7.70;99.90;;;;;;5021086;28;20127;-90
2023/12/11 07:12:01;;;;;;;18.00;7.85;;;7.60;99.90;;;;;;5037379;28;20120;-89
2023/12/11 07:14:27;;;;;;;10.80;6.65;;;7.70;99.90;;;;;;5017631;28;20115;-87
2023/12/11 07:16:52;;;;;;;15.77;7.57;;;7.70;99.90;;;;;;5033924;28;20087;-87
2023/12/11 07:19:21;;;;;;;14.13;7.30;;;7.70;99.90;;;;;;5017773;28;20091;-87
2023/12/11 07:21:47;;;;;;;14.63;6.93;;;7.70;99.90;;;;;;5018075;28;20053;-87
2023/12/11 07:24:13;;;;;;;13.13;6.88;;;7.70;99.90;;;;;;5017259;28;20039;-88
2023/12/11 07:26:39;;;;;;;16.25;6.55;;;7.80;99.90;;;;;;5034791;28;20021;-88
2023/12/11 07:29:07;;;;;;;12.65;6.13;;;7.70;99.90;;;;;;5017743;28;20064;-87
2023/12/11 07:31:33;;;;;;;9.07;5.72;;;7.70;99.90;;;;;;5017644;28;20605;-87
2023/12/11 07:33:59;;;;;;;11.75;6.13;;;7.70;99.90;;;;;;5017243;28;20029;-87
2023/12/11 07:36:25;;;;;;;10.45;4.68;;;7.60;99.90;;;;;;5034178;28;20128;-87
2023/12/11 07:38:51;;;;;;;14.48;5.22;;;7.60;99.90;;;;;;5017299;28;20051;-86
2023/12/11 07:41:20;;;;;;;10.18;4.75;;;7.50;99.90;;;;;;5034135;28;20039;-87
2023/12/11 07:43:47;;;;;;;11.05;5.07;;;7.50;99.90;;;;;;5034359;28;20445;-88
2023/12/11 07:46:19;;;;;;;13.82;4.63;;;7.50;99.90;;;;;;5034684;28;20440;-87
2023/12/11 07:48:46;;;;;;;14.75;5.20;;;7.50;99.90;;;;;;5017390;28;20037;-86
2023/12/11 07:51:25;;;;;;;13.63;6.75;;;7.60;99.90;;;;;;5033538;28;20104;-86
2023/12/11 07:53:55;;;;;;;16.08;5.72;;;7.60;99.90;;;;;;5033605;28;20087;-87
2023/12/11 07:56:22;;;;;;;21.17;5.82;;;7.60;99.90;;;;;;5016747;28;20484;-85
2023/12/11 07:58:52;;;;;;;21.65;6.25;;;7.60;99.90;;;;;;5016538;28;20042;-87
2023/12/11 08:01:18;;;;;;;8.23;4.30;;;7.70;99.90;;;;;;5017578;28;20037;-87
2023/12/11 08:03:44;;;;;;;18.92;4.32;;;7.70;99.90;;;;;;5034191;28;20067;-87
2023/12/11 08:06:10;;;;;;;10.18;4.85;;;7.70;99.90;;;;;;5017842;28;20033;-88
2023/12/11 08:08:45;;;;;;;12.30;4.20;;;7.70;99.90;;;;;;5035196;28;20552;-87
2023/12/11 08:11:19;;;;;;;11.63;5.05;;;7.70;99.90;;;;;;5032870;28;20060;-87
2023/12/11 08:13:45;;;;;;;15.18;4.80;;;7.70;99.90;;;;;;5033790;28;20052;-86
2023/12/11 08:16:11;;;;;;;15.70;5.10;;;7.80;99.90;;;;;;5017140;28;20029;-87
2023/12/11 08:18:37;;;;;;;10.90;4.88;;;7.70;99.90;;;;;;5016502;28;20128;-87
2023/12/11 08:21:06;;;;;;;20.48;7.18;;;7.80;99.90;;;;;;5016805;28;20207;-87
2023/12/11 08:23:32;;;;;;;12.57;3.60;;;7.80;99.90;;;;;;5015866;28;20519;-87
2023/12/11 08:25:58;;;;;;;13.52;3.80;;;7.70;99.90;;;;;;5032587;28;20030;-87
2023/12/11 08:28:24;;;;;;;15.23;4.22;;;7.70;99.90;;;;;;5015905;28;20370;-87
2023/12/11 08:30:49;;;;;;;11.20;3.90;;;7.70;99.90;;;;;;5016109;28;20044;-87
2023/12/11 08:33:15;;;;;;;11.18;3.42;;;7.70;99.90;;;;;;5016846;28;20524;-87
2023/12/11 08:35:41;;;;;;;15.70;4.15;;;7.80;99.90;;;;;;5016155;28;20489;-87
2023/12/11 08:38:06;;;;;;;8.93;3.60;;;7.80;99.90;;;;;;5016035;28;20037;-85
2023/12/11 08:40:32;;;;;;;14.10;3.70;;;7.80;99.90;;;;;;5016412;28;20029;-87
2023/12/11 08:42:58;;;;;;;11.88;3.13;;;7.90;99.90;;;;;;5032687;28;20033;-87
2023/12/11 08:45:24;;;;;;;14.10;3.33;;;8.00;99.90;;;;;;5016344;28;20562;-87
2023/12/11 08:47:50;;;;;;;15.18;4.90;;;7.90;99.90;;;;;;5032692;28;20033;-87
2023/12/11 08:50:16;;;;;;;19.67;3.75;;;8.00;99.90;;;;;;5017966;28;20029;-86
2023/12/11 08:52:44;;;;;;;9.82;4.38;;;8.00;99.90;;;;;;5032111;28;20040;-88
2023/12/11 08:55:10;;;;;;;8.95;2.95;;;8.00;99.90;;;;;;5015598;28;20374;-88
2023/12/11 08:57:36;;;;;;;14.88;3.08;;;8.00;99.90;;;;;;5032485;28;20029;-87
2023/12/11 09:00:03;;;;;;;19.08;6.78;;;7.90;99.90;;;;;;5015595;28;20022;-86
2023/12/11 09:02:29;;;;;;;11.80;4.15;;;7.90;99.90;;;;;;5015686;28;20515;-88
2023/12/11 09:04:55;;;;;;;8.88;3.53;;;8.00;99.90;;;;;;5015842;28;20039;-87
2023/12/11 09:07:20;;;;;;;12.90;4.13;;;8.00;99.90;;;;;;5015866;28;20037;-87
2023/12/11 09:09:46;;;;;;;10.98;3.60;;;8.00;99.90;;;;;;5031698;28;20124;-87
2023/12/11 09:12:12;;;;;;;8.70;3.65;;;8.10;99.90;;;;;;5015932;28;20463;-87
2023/12/11 09:14:37;;;;;;;9.65;2.60;;;8.20;99.90;;;;;;5015697;28;20028;-87
2023/12/11 09:17:03;;;;;;;8.32;2.40;;;8.20;99.90;;;;;;5015844;28;20033;-86
2023/12/11 09:19:29;;;;;;;7.60;3.00;;;8.30;99.90;;;;;;5016278;28;20092;-87
2023/12/11 09:21:55;;;;;;;11.13;3.20;;;8.40;99.90;;;;;;5032404;28;20037;-87
2023/12/11 09:24:21;;;;;;;10.00;2.72;;;8.60;99.90;;;;;;5016256;28;20033;-87
2023/12/11 09:26:46;;;;;;;14.60;2.88;;;8.60;99.90;;;;;;5015528;28;20068;-87
2023/12/11 09:29:12;;;;;;;10.60;2.92;;;8.70;99.90;;;;;;5015901;28;20044;-87
2023/12/11 09:31:38;;;;;;;12.32;2.63;;;8.80;99.90;;;;;;5033734;28;20496;-86
2023/12/11 09:34:04;;;;;;;12.60;2.63;;;8.90;99.90;;;;;;5015726;28;20030;-87
2023/12/11 09:36:29;;;;;;;9.80;2.47;;;9.20;99.90;;;;;;5015488;28;20038;-86
2023/12/11 09:38:58;;;;;;;10.90;2.70;;;9.40;99.90;;;;;;5024971;28;20055;-87
2023/12/11 09:41:33;;;;;;;8.07;2.20;;;9.70;99.90;;;;;;5016351;28;20405;-87
2023/12/11 09:44:01;;;;;;;5.80;2.10;;;9.90;99.90;;;;;;5033488;28;20503;-87
2023/12/11 09:46:29;;;;;;;10.02;3.83;;;10.30;99.90;;;;;;5015359;28;20036;-86
2023/12/11 09:48:55;;;;;;;10.95;2.05;;;10.20;99.90;;;;;;5032476;28;20029;-87
2023/12/11 09:51:21;;;;;;;15.07;2.78;;;10.30;99.90;;;;;;5015490;28;20439;-87
2023/12/11 09:53:51;;;;;;;8.07;3.33;;;10.70;99.90;;;;;;5015408;28;20056;-86
2023/12/11 09:56:18;;;;;;;4.35;2.03;;;11.00;99.90;;;;;;5015268;28;20033;-87
2023/12/11 09:58:45;;;;;;;10.02;2.03;;;10.90;99.90;;;;;;5032507;28;20039;-86
2023/12/11 10:01:15;;;;;;;7.43;2.10;;;10.90;99.90;;;;;;5014753;28;20514;-86
2023/12/11 10:03:41;;;;;;;8.23;1.90;;;10.90;99.90;;;;;;5031559;28;20508;-86
2023/12/11 10:06:07;;;;;;;8.85;2.13;;;11.00;99.90;;;;;;5014448;28;20033;-86
2023/12/11 10:08:43;;;;;;;6.53;1.80;;;11.10;99.90;;;;;;5014448;28;20091;-87
2023/12/11 10:11:16;;;;;;;5.93;1.77;;;10.90;99.90;;;;;;5014516;28;20033;-87
2023/12/11 10:13:42;;;;;;;14.18;2.70;;;10.80;99.90;;;;;;5030604;28;20484;-86
2023/12/11 10:16:30;;;;;;;7.32;2.38;;;10.50;99.90;;;;;;5031345;28;20029;-87
2023/12/11 10:18:57;;;;;;;13.60;2.58;;;10.80;99.90;;;;;;5031914;28;20174;-86
2023/12/11 10:21:26;;;;;;;10.15;2.13;;;11.10;99.90;;;;;;5030840;28;20103;-87
2023/12/11 10:24:06;;;;;;;18.35;2.92;;;11.10;99.90;;;;;;5018949;28;20473;-87
2023/12/11 10:26:43;;;;;;;13.25;2.50;;;10.70;99.90;;;;;;5018844;28;20037;-86
2023/12/11 10:29:36;;;;;;;9.07;2.42;;;10.40;99.90;;;;;;5034845;28;20792;-87
2023/12/11 10:32:03;;;;;;;14.13;2.20;;;10.00;99.90;;;;;;5033227;28;20064;-87
2023/12/11 10:34:45;;;;;;;7.53;2.53;;;9.80;99.90;;;;;;5018752;28;20021;-87
2023/12/11 10:37:16;;;;;;;14.20;2.42;;;9.80;99.90;;;;;;5019085;28;20025;-87
2023/12/11 10:39:53;;;;;;;11.80;3.10;;;9.70;99.90;;;;;;5019309;28;20021;-86
2023/12/11 10:42:20;;;;;;;14.75;2.40;;;9.70;99.90;;;;;;5019438;28;20537;-87
2023/12/11 10:44:45;;;;;;;20.10;2.97;;;9.60;99.90;;;;;;5036203;28;20033;-87
2023/12/11 10:47:12;;;;;;;14.57;2.85;;;9.40;99.90;;;;;;5019485;28;20025;-86
2023/12/11 10:49:39;;;;;;;21.95;3.45;;;9.30;99.90;;;;;;5017845;28;20124;-87
2023/12/11 10:52:05;;;;;;;14.30;3.45;;;9.20;99.90;;;;;;5018209;28;20485;-87
2023/12/11 10:54:31;;;;;;;16.73;2.67;;;9.20;99.90;;;;;;5018527;28;20117;-86
2023/12/11 10:57:00;;;;;;;17.42;3.90;;;9.20;99.90;;;;;;5018496;28;20029;-86
2023/12/11 10:59:27;;;;;;;10.75;2.38;;;9.10;99.90;;;;;;5018238;28;20025;-86
2023/12/11 11:01:56;;;;;;;16.42;3.22;;;9.10;99.90;;;;;;5018196;28;20036;-87
2023/12/11 11:04:22;;;;;;;13.07;3.42;;;9.00;99.90;;;;;;5034436;28;20038;-87
2023/12/11 11:06:54;;;;;;;16.88;3.17;;;9.00;99.90;;;;;;5034909;28;20040;-86
2023/12/11 11:09:45;;;;;;;14.88;3.05;;;8.90;99.90;;;;;;5017548;28;20033;-87
2023/12/11 11:12:34;;;;;;;15.73;2.63;;;9.00;99.90;;;;;;5007799;28;20049;-86
2023/12/11 11:15:00;;;;;;;17.85;5.78;;;9.20;99.90;;;;;;5018130;28;20499;-86
2023/12/11 11:18:02;;;;;;;15.90;3.58;;;9.30;99.90;;;;;;5034471;28;20033;-86
2023/12/11 11:20:30;;;;;;;14.50;3.00;;;9.40;99.90;;;;;;5034706;28;20539;-87
2023/12/11 11:23:26;;;;;;;27.30;4.90;;;9.30;99.90;;;;;;5037435;28;20389;-88
2023/12/11 11:25:53;;;;;;;14.48;2.53;;;9.40;99.90;;;;;;5026162;28;20085;-87
2023/12/11 11:28:40;;;;;;;19.23;3.28;;;9.40;99.90;;;;;;5017873;28;20087;-86
2023/12/11 11:31:08;;;;;;;17.83;3.35;;;9.30;99.90;;;;;;5033746;28;20030;-85
2023/12/11 11:33:51;;;;;;;21.38;4.75;;;9.30;99.90;;;;;;5033646;28;20124;-85
2023/12/11 11:36:19;;;;;;;22.40;3.80;;;9.30;99.90;;;;;;5017049;28;20034;-84
2023/12/11 11:38:54;;;;;;;20.08;4.18;;;9.40;99.90;;;;;;5017408;28;20065;-85
2023/12/11 11:41:27;;;;;;;21.30;4.70;;;9.40;99.90;;;;;;5033801;28;20041;-85
2023/12/11 11:44:00;;;;;;;18.15;4.90;;;9.50;99.90;;;;;;5017604;28;20905;-85
2023/12/11 11:46:28;;;;;;;19.00;3.83;;;9.50;99.90;;;;;;5017053;28;20029;-85
2023/12/11 11:48:53;;;;;;;15.00;3.53;;;9.60;99.90;;;;;;5035388;28;20061;-85
2023/12/11 11:51:22;;;;;;;19.35;4.55;;;9.60;99.90;;;;;;5034910;28;20068;-85
2023/12/11 11:53:57;;;;;;;13.38;4.20;;;9.50;99.90;;;;;;5033730;28;20029;-85
2023/12/11 11:56:23;;;;;;;22.70;4.00;;;9.50;99.90;;;;;;5017443;28;20041;-85
2023/12/11 11:58:49;;;;;;;22.55;4.55;;;9.40;99.90;;;;;;5034130;28;20397;-85
2023/12/11 12:01:14;;;;;;;30.08;6.65;;;9.40;99.90;;;;;;5017904;28;20060;-85
2023/12/11 12:03:44;;;;;;;20.40;4.18;;;9.30;99.90;;;;;;5018166;28;20030;-85
2023/12/11 12:06:10;;;;;;;21.73;4.18;;;9.40;99.90;;;;;;5017315;28;20452;-85
2023/12/11 12:08:41;;;;;;;21.60;3.78;;;9.40;99.90;;;;;;5033832;28;20037;-84
2023/12/11 12:11:07;;;;;;;;;;;9.40;99.90;;;;;;5034618;28;20161;-85
2023/12/11 12:13:33;;;;;;;27.40;4.75;;;9.40;99.90;;;;;;5033825;28;19913;-85
2023/12/11 12:15:59;;;;;;;27.33;4.25;;;9.40;99.90;;;;;;5034764;28;20025;-85
2023/12/11 12:18:25;;;;;;;27.23;3.90;;;9.40;99.90;;;;;;5034797;28;20029;-85
2023/12/11 12:21:04;;;;;;;20.00;3.17;;;9.40;99.90;;;;;;5017358;28;20533;-85
2023/12/11 12:23:30;;;;;;;23.35;3.25;;;9.40;99.90;;;;;;5017197;28;20041;-86
2023/12/11 12:25:59;;;;;;;20.25;4.00;;;9.50;99.90;;;;;;5016368;28;20044;-85
2023/12/11 12:28:26;;;;;;;21.08;4.10;;;9.60;99.90;;;;;;5017181;28;20048;-85
2023/12/11 12:30:52;;;;;;;17.60;3.47;;;9.70;99.90;;;;;;5017261;28;20048;-85
2023/12/11 12:33:19;;;;;;;19.58;3.83;;;9.70;99.90;;;;;;5017059;28;20030;-86
2023/12/11 12:35:45;;;;;;;18.45;3.45;;;9.80;99.90;;;;;;5017039;28;20030;-86
2023/12/11 12:38:13;;;;;;;24.73;6.45;;;9.70;99.90;;;;;;5017049;28;20144;-86
2023/12/11 12:40:39;;;;;;;18.42;3.20;;;9.60;99.90;;;;;;5035174;28;20116;-88
2023/12/11 12:43:12;;;;;;;26.08;3.30;;;9.60;99.90;;;;;;5016556;28;20060;-85